sensor_id;sensor_type;location;lat;lon;timestamp;pressure;altitude;pressure_sealevel;temperature;humidity
63281;BME280;49406;51.044;3.766;2023-04-23T00:02:01;100719.30;;;9.48;100.00
63281;BME280;49406;51.044;3.766;2023-04-23T00:04:37;100723.13;;;9.48;100.00
63281;BME280;49406;51.044;3.766;2023-04-23T00:07:12;100731.70;;;9.51;100.00
63281;BME280;49406;51.044;3.766;2023-04-23T00:09:47;100735.02;;;9.52;100.00
63281;BME280;49406;51.044;3.766;2023-04-23T00:12:24;100737.23;;;9.61;100.00
63281;BME280;49406;51.044;3.766;2023-04-23T00:14:57;100747.18;;;9.77;100.00
63281;BME280;49406;51.044;3.766;2023-04-23T00:17:31;100749.64;;;9.80;100.00
63281;BME280;49406;51.044;3.766;2023-04-23T00:20:08;100746.15;;;9.80;100.00
63281;BME280;49406;51.044;3.766;2023-04-23T00:22:44;100742.86;;;9.83;100.00
63281;BME280;49406;51.044;3.766;2023-04-23T00:25:18;100741.48;;;9.86;100.00
63281;BME280;49406;51.044;3.766;2023-04-23T00:27:53;100740.05;;;9.81;100.00
63281;BME280;49406;51.044;3.766;2023-04-23T00:30:28;100743.83;;;9.74;100.00
63281;BME280;49406;51.044;3.766;2023-04-23T00:33:03;100740.95;;;9.68;100.00
63281;BME280;49406;51.044;3.766;2023-04-23T00:35:37;100741.66;;;9.68;100.00
63281;BME280;49406;51.044;3.766;2023-04-23T00:38:12;100744.46;;;9.69;100.00
63281;BME280;49406;51.044;3.766;2023-04-23T00:40:47;100736.73;;;9.64;100.00
63281;BME280;49406;51.044;3.766;2023-04-23T00:43:21;100734.09;;;9.60;100.00
63281;BME280;49406;51.044;3.766;2023-04-23T00:45:56;100734.38;;;9.56;100.00
63281;BME280;49406;51.044;3.766;2023-04-23T00:48:32;100728.91;;;9.51;100.00
63281;BME280;49406;51.044;3.766;2023-04-23T00:51:09;100727.64;;;9.46;100.00
63281;BME280;49406;51.044;3.766;2023-04-23T00:53:44;100723.55;;;9.39;100.00
63281;BME280;49406;51.044;3.766;2023-04-23T00:56:19;100721.17;;;9.29;100.00
63281;BME280;49406;51.044;3.766;2023-04-23T00:58:53;100714.46;;;9.22;100.00
63281;BME280;49406;51.044;3.766;2023-04-23T01:01:29;100714.93;;;9.18;100.00
63281;BME280;49406;51.044;3.766;2023-04-23T01:04:05;100714.63;;;9.21;100.00
63281;BME280;49406;51.044;3.766;2023-04-23T01:06:41;100714.96;;;9.21;100.00
63281;BME280;49406;51.044;3.766;2023-04-23T01:09:18;100711.30;;;9.20;100.00
63281;BME280;49406;51.044;3.766;2023-04-23T01:11:53;100713.38;;;9.18;100.00
63281;BME280;49406;51.044;3.766;2023-04-23T01:14:28;100712.83;;;9.16;100.00
63281;BME280;49406;51.044;3.766;2023-04-23T01:17:03;100712.42;;;9.11;100.00
63281;BME280;49406;51.044;3.766;2023-04-23T01:19:42;100713.29;;;9.10;100.00
63281;BME280;49406;51.044;3.766;2023-04-23T01:22:17;100714.09;;;9.06;100.00
63281;BME280;49406;51.044;3.766;2023-04-23T01:24:52;100715.44;;;9.02;100.00
63281;BME280;49406;51.044;3.766;2023-04-23T01:27:27;100707.56;;;8.99;100.00
63281;BME280;49406;51.044;3.766;2023-04-23T01:30:02;100706.29;;;8.95;100.00
63281;BME280;49406;51.044;3.766;2023-04-23T01:32:39;100702.34;;;9.00;100.00
63281;BME280;49406;51.044;3.766;2023-04-23T01:35:14;100707.96;;;9.05;100.00
63281;BME280;49406;51.044;3.766;2023-04-23T01:37:50;100703.95;;;9.04;100.00
63281;BME280;49406;51.044;3.766;2023-04-23T01:40:23;100702.16;;;9.00;100.00
63281;BME280;49406;51.044;3.766;2023-04-23T01:42:58;100700.60;;;9.00;100.00
63281;BME280;49406;51.044;3.766;2023-04-23T01:45:33;100700.08;;;9.00;100.00
63281;BME280;49406;51.044;3.766;2023-04-23T01:48:08;100699.52;;;8.97;100.00
63281;BME280;49406;51.044;3.766;2023-04-23T01:50:43;100700.82;;;8.90;100.00
63281;BME280;49406;51.044;3.766;2023-04-23T01:53:18;100701.27;;;8.85;100.00
63281;BME280;49406;51.044;3.766;2023-04-23T01:55:54;100699.29;;;8.79;100.00
63281;BME280;49406;51.044;3.766;2023-04-23T01:58:29;100697.48;;;8.74;100.00
63281;BME280;49406;51.044;3.766;2023-04-23T02:01:04;100693.77;;;8.71;100.00
63281;BME280;49406;51.044;3.766;2023-04-23T02:03:39;100693.05;;;8.82;100.00
63281;BME280;49406;51.044;3.766;2023-04-23T02:06:14;100688.00;;;8.84;100.00
63281;BME280;49406;51.044;3.766;2023-04-23T02:08:49;100686.44;;;8.84;100.00
63281;BME280;49406;51.044;3.766;2023-04-23T02:11:23;100682.41;;;8.82;100.00
63281;BME280;49406;51.044;3.766;2023-04-23T02:13:58;100684.21;;;8.87;100.00
63281;BME280;49406;51.044;3.766;2023-04-23T02:16:33;100684.56;;;8.88;100.00
63281;BME280;49406;51.044;3.766;2023-04-23T02:19:08;100687.34;;;8.86;100.00
63281;BME280;49406;51.044;3.766;2023-04-23T02:21:43;100681.20;;;8.82;100.00
63281;BME280;49406;51.044;3.766;2023-04-23T02:24:18;100681.34;;;8.80;100.00
63281;BME280;49406;51.044;3.766;2023-04-23T02:26:52;100678.52;;;8.77;100.00
63281;BME280;49406;51.044;3.766;2023-04-23T02:29:27;100678.69;;;8.76;100.00
63281;BME280;49406;51.044;3.766;2023-04-23T02:32:01;100673.33;;;8.80;100.00
63281;BME280;49406;51.044;3.766;2023-04-23T02:34:36;100679.09;;;8.80;100.00
63281;BME280;49406;51.044;3.766;2023-04-23T02:37:11;100674.51;;;8.76;100.00
63281;BME280;49406;51.044;3.766;2023-04-23T02:39:45;100675.50;;;8.73;100.00
63281;BME280;49406;51.044;3.766;2023-04-23T02:42:20;100675.27;;;8.70;100.00
63281;BME280;49406;51.044;3.766;2023-04-23T02:44:55;100674.03;;;8.68;100.00
63281;BME280;49406;51.044;3.766;2023-04-23T02:47:29;100673.13;;;8.65;100.00
63281;BME280;49406;51.044;3.766;2023-04-23T02:50:05;100672.06;;;8.63;100.00
63281;BME280;49406;51.044;3.766;2023-04-23T02:52:40;100671.17;;;8.61;100.00
63281;BME280;49406;51.044;3.766;2023-04-23T02:55:14;100673.14;;;8.54;100.00
63281;BME280;49406;51.044;3.766;2023-04-23T02:57:49;100673.40;;;8.47;100.00
63281;BME280;49406;51.044;3.766;2023-04-23T03:00:24;100677.48;;;8.39;100.00
63281;BME280;49406;51.044;3.766;2023-04-23T03:02:59;100676.67;;;8.33;100.00
63281;BME280;49406;51.044;3.766;2023-04-23T03:05:33;100668.86;;;8.35;100.00
63281;BME280;49406;51.044;3.766;2023-04-23T03:08:08;100672.30;;;8.32;100.00
63281;BME280;49406;51.044;3.766;2023-04-23T03:10:43;100673.95;;;8.26;100.00
63281;BME280;49406;51.044;3.766;2023-04-23T03:13:17;100680.15;;;8.22;100.00
63281;BME280;49406;51.044;3.766;2023-04-23T03:15:53;100680.81;;;8.21;100.00
63281;BME280;49406;51.044;3.766;2023-04-23T03:18:28;100683.91;;;8.18;100.00
63281;BME280;49406;51.044;3.766;2023-04-23T03:21:03;100680.23;;;8.15;100.00
63281;BME280;49406;51.044;3.766;2023-04-23T03:23:37;100676.50;;;8.10;100.00
63281;BME280;49406;51.044;3.766;2023-04-23T03:26:12;100680.98;;;8.07;100.00
63281;BME280;49406;51.044;3.766;2023-04-23T03:28:47;100676.55;;;8.04;100.00
63281;BME280;49406;51.044;3.766;2023-04-23T03:31:22;100667.77;;;7.98;100.00
63281;BME280;49406;51.044;3.766;2023-04-23T03:33:57;100667.23;;;7.97;100.00
63281;BME280;49406;51.044;3.766;2023-04-23T03:36:31;100666.45;;;8.02;100.00
63281;BME280;49406;51.044;3.766;2023-04-23T03:39:06;100663.42;;;8.09;100.00
63281;BME280;49406;51.044;3.766;2023-04-23T03:41:41;100661.68;;;8.09;100.00
63281;BME280;49406;51.044;3.766;2023-04-23T03:44:15;100659.10;;;8.11;100.00
63281;BME280;49406;51.044;3.766;2023-04-23T03:46:50;100662.21;;;8.09;100.00
63281;BME280;49406;51.044;3.766;2023-04-23T03:49:26;100667.63;;;8.11;100.00
63281;BME280;49406;51.044;3.766;2023-04-23T03:52:01;100665.67;;;8.09;100.00
63281;BME280;49406;51.044;3.766;2023-04-23T03:54:35;100666.58;;;8.10;100.00
63281;BME280;49406;51.044;3.766;2023-04-23T03:57:10;100668.71;;;8.14;100.00
63281;BME280;49406;51.044;3.766;2023-04-23T03:59:45;100665.39;;;8.13;100.00
63281;BME280;49406;51.044;3.766;2023-04-23T04:02:19;100666.42;;;8.13;100.00
63281;BME280;49406;51.044;3.766;2023-04-23T04:04:54;100670.80;;;8.14;100.00
63281;BME280;49406;51.044;3.766;2023-04-23T04:07:29;100672.50;;;8.11;100.00
63281;BME280;49406;51.044;3.766;2023-04-23T04:10:04;100675.44;;;8.10;100.00
63281;BME280;49406;51.044;3.766;2023-04-23T04:12:39;100662.02;;;8.09;100.00
63281;BME280;49406;51.044;3.766;2023-04-23T04:15:13;100657.61;;;8.18;100.00
63281;BME280;49406;51.044;3.766;2023-04-23T04:17:48;100662.88;;;8.21;100.00
63281;BME280;49406;51.044;3.766;2023-04-23T04:20:22;100659.04;;;8.20;100.00
63281;BME280;49406;51.044;3.766;2023-04-23T04:22:57;100657.46;;;8.20;100.00
63281;BME280;49406;51.044;3.766;2023-04-23T04:25:32;100646.79;;;8.16;100.00
63281;BME280;49406;51.044;3.766;2023-04-23T04:28:12;100653.82;;;8.21;100.00
63281;BME280;49406;51.044;3.766;2023-04-23T04:30:47;100649.52;;;8.23;100.00
63281;BME280;49406;51.044;3.766;2023-04-23T04:33:22;100657.75;;;8.25;100.00
63281;BME280;49406;51.044;3.766;2023-04-23T04:35:58;100657.38;;;8.25;100.00
63281;BME280;49406;51.044;3.766;2023-04-23T04:38:32;100659.16;;;8.27;100.00
63281;BME280;49406;51.044;3.766;2023-04-23T04:41:10;100661.13;;;8.40;100.00
63281;BME280;49406;51.044;3.766;2023-04-23T04:43:45;100661.19;;;8.45;100.00
63281;BME280;49406;51.044;3.766;2023-04-23T04:46:20;100662.30;;;8.50;100.00
63281;BME280;49406;51.044;3.766;2023-04-23T04:48:55;100661.77;;;8.50;100.00
63281;BME280;49406;51.044;3.766;2023-04-23T04:51:30;100661.65;;;8.54;100.00
63281;BME280;49406;51.044;3.766;2023-04-23T04:54:05;100663.15;;;8.61;100.00
63281;BME280;49406;51.044;3.766;2023-04-23T04:56:40;100662.79;;;8.73;100.00
63281;BME280;49406;51.044;3.766;2023-04-23T04:59:15;100664.22;;;8.91;100.00
63281;BME280;49406;51.044;3.766;2023-04-23T05:01:50;100661.83;;;9.09;100.00
63281;BME280;49406;51.044;3.766;2023-04-23T05:04:24;100660.76;;;9.23;100.00
63281;BME280;49406;51.044;3.766;2023-04-23T05:06:59;100663.02;;;9.41;100.00
63281;BME280;49406;51.044;3.766;2023-04-23T05:09:34;100662.63;;;9.54;100.00
63281;BME280;49406;51.044;3.766;2023-04-23T05:12:08;100662.52;;;9.80;100.00
63281;BME280;49406;51.044;3.766;2023-04-23T05:14:43;100656.17;;;9.93;100.00
63281;BME280;49406;51.044;3.766;2023-04-23T05:17:17;100653.59;;;9.98;100.00
63281;BME280;49406;51.044;3.766;2023-04-23T05:19:52;100651.70;;;10.05;100.00
63281;BME280;49406;51.044;3.766;2023-04-23T05:22:27;100652.52;;;10.18;100.00
63281;BME280;49406;51.044;3.766;2023-04-23T05:25:02;100653.21;;;10.43;100.00
63281;BME280;49406;51.044;3.766;2023-04-23T05:27:37;100655.30;;;10.76;100.00
63281;BME280;49406;51.044;3.766;2023-04-23T05:30:12;100646.67;;;11.06;100.00
63281;BME280;49406;51.044;3.766;2023-04-23T05:32:47;100644.98;;;11.30;100.00
63281;BME280;49406;51.044;3.766;2023-04-23T05:35:22;100644.67;;;11.55;100.00
63281;BME280;49406;51.044;3.766;2023-04-23T05:37:57;100640.67;;;11.80;100.00
63281;BME280;49406;51.044;3.766;2023-04-23T05:40:32;100638.59;;;11.97;100.00
63281;BME280;49406;51.044;3.766;2023-04-23T05:43:06;100634.17;;;12.22;100.00
63281;BME280;49406;51.044;3.766;2023-04-23T05:45:41;100640.55;;;12.59;100.00
63281;BME280;49406;51.044;3.766;2023-04-23T05:48:16;100642.50;;;12.97;100.00
63281;BME280;49406;51.044;3.766;2023-04-23T05:50:51;100647.98;;;13.30;100.00
63281;BME280;49406;51.044;3.766;2023-04-23T05:53:26;100646.98;;;13.51;100.00
63281;BME280;49406;51.044;3.766;2023-04-23T05:56:01;100650.70;;;13.45;100.00
63281;BME280;49406;51.044;3.766;2023-04-23T05:58:35;100649.38;;;13.32;100.00
63281;BME280;49406;51.044;3.766;2023-04-23T06:01:11;100656.27;;;13.22;100.00
63281;BME280;49406;51.044;3.766;2023-04-23T06:03:46;100658.90;;;13.22;100.00
63281;BME280;49406;51.044;3.766;2023-04-23T06:06:21;100653.18;;;13.40;100.00
63281;BME280;49406;51.044;3.766;2023-04-23T06:08:55;100645.46;;;13.64;100.00
63281;BME280;49406;51.044;3.766;2023-04-23T06:11:30;100641.91;;;13.91;100.00
63281;BME280;49406;51.044;3.766;2023-04-23T06:14:05;100635.28;;;14.23;100.00
63281;BME280;49406;51.044;3.766;2023-04-23T06:16:40;100637.88;;;14.45;100.00
63281;BME280;49406;51.044;3.766;2023-04-23T06:19:15;100633.81;;;14.49;100.00
63281;BME280;49406;51.044;3.766;2023-04-23T06:21:51;100628.83;;;14.54;100.00
63281;BME280;49406;51.044;3.766;2023-04-23T06:24:25;100622.45;;;14.39;100.00
63281;BME280;49406;51.044;3.766;2023-04-23T06:27:00;100629.04;;;14.51;100.00
63281;BME280;49406;51.044;3.766;2023-04-23T06:29:35;100628.08;;;14.73;100.00
63281;BME280;49406;51.044;3.766;2023-04-23T06:32:10;100623.33;;;15.00;100.00
63281;BME280;49406;51.044;3.766;2023-04-23T06:34:44;100623.27;;;15.29;100.00
63281;BME280;49406;51.044;3.766;2023-04-23T06:37:19;100623.66;;;15.38;98.40
63281;BME280;49406;51.044;3.766;2023-04-23T06:39:54;100625.11;;;15.36;98.46
63281;BME280;49406;51.044;3.766;2023-04-23T06:42:28;100619.61;;;15.50;99.45
63281;BME280;49406;51.044;3.766;2023-04-23T06:45:03;100626.96;;;15.77;96.38
63281;BME280;49406;51.044;3.766;2023-04-23T06:47:38;100624.63;;;16.00;94.53
63281;BME280;49406;51.044;3.766;2023-04-23T06:50:13;100624.02;;;16.24;96.60
63281;BME280;49406;51.044;3.766;2023-04-23T06:52:47;100617.67;;;16.51;93.58
63281;BME280;49406;51.044;3.766;2023-04-23T06:55:22;100626.52;;;16.77;93.10
63281;BME280;49406;51.044;3.766;2023-04-23T06:57:58;100620.96;;;16.91;89.96
63281;BME280;49406;51.044;3.766;2023-04-23T07:00:33;100616.20;;;16.98;90.22
63281;BME280;49406;51.044;3.766;2023-04-23T07:03:07;100611.75;;;17.07;90.21
63281;BME280;49406;51.044;3.766;2023-04-23T07:05:42;100616.02;;;17.15;88.71
63281;BME280;49406;51.044;3.766;2023-04-23T07:08:17;100613.17;;;17.31;89.16
63281;BME280;49406;51.044;3.766;2023-04-23T07:10:53;100606.61;;;17.47;86.91
63281;BME280;49406;51.044;3.766;2023-04-23T07:13:28;100607.61;;;17.63;86.25
63281;BME280;49406;51.044;3.766;2023-04-23T07:16:02;100600.39;;;17.78;85.80
63281;BME280;49406;51.044;3.766;2023-04-23T07:18:37;100605.25;;;17.82;84.27
63281;BME280;49406;51.044;3.766;2023-04-23T07:21:12;100601.89;;;17.88;84.64
63281;BME280;49406;51.044;3.766;2023-04-23T07:23:46;100601.36;;;17.95;83.91
63281;BME280;49406;51.044;3.766;2023-04-23T07:26:21;100594.79;;;18.03;82.40
63281;BME280;49406;51.044;3.766;2023-04-23T07:28:56;100589.96;;;18.11;81.97
63281;BME280;49406;51.044;3.766;2023-04-23T07:31:30;100592.92;;;18.07;82.02
63281;BME280;49406;51.044;3.766;2023-04-23T07:34:05;100596.42;;;18.15;80.17
63281;BME280;49406;51.044;3.766;2023-04-23T07:36:39;100593.45;;;18.07;80.23
63281;BME280;49406;51.044;3.766;2023-04-23T07:39:14;100594.51;;;18.13;82.05
63281;BME280;49406;51.044;3.766;2023-04-23T07:41:49;100592.33;;;18.09;81.44
63281;BME280;49406;51.044;3.766;2023-04-23T07:44:23;100589.56;;;18.07;82.39
63281;BME280;49406;51.044;3.766;2023-04-23T07:46:58;100581.05;;;18.14;80.81
63281;BME280;49406;51.044;3.766;2023-04-23T07:49:33;100580.58;;;18.24;80.82
63281;BME280;49406;51.044;3.766;2023-04-23T07:52:08;100575.77;;;18.32;78.98
63281;BME280;49406;51.044;3.766;2023-04-23T07:54:43;100571.23;;;18.23;78.96
63281;BME280;49406;51.044;3.766;2023-04-23T07:57:18;100573.27;;;18.14;78.21
63281;BME280;49406;51.044;3.766;2023-04-23T07:59:51;100572.05;;;17.86;79.23
63281;BME280;49406;51.044;3.766;2023-04-23T08:02:26;100570.52;;;17.70;79.81
63281;BME280;49406;51.044;3.766;2023-04-23T08:05:00;100570.44;;;17.66;80.51
63281;BME280;49406;51.044;3.766;2023-04-23T08:07:35;100569.52;;;17.67;80.85
63281;BME280;49406;51.044;3.766;2023-04-23T08:10:10;100565.13;;;17.74;80.60
63281;BME280;49406;51.044;3.766;2023-04-23T08:12:45;100567.00;;;17.90;79.79
63281;BME280;49406;51.044;3.766;2023-04-23T08:15:20;100570.76;;;17.95;79.00
63281;BME280;49406;51.044;3.766;2023-04-23T08:17:55;100568.63;;;17.89;78.98
63281;BME280;49406;51.044;3.766;2023-04-23T08:20:30;100573.71;;;17.97;80.22
63281;BME280;49406;51.044;3.766;2023-04-23T08:23:04;100575.70;;;18.02;78.95
63281;BME280;49406;51.044;3.766;2023-04-23T08:25:39;100575.01;;;17.89;78.77
63281;BME280;49406;51.044;3.766;2023-04-23T08:28:16;100575.48;;;17.91;79.17
63281;BME280;49406;51.044;3.766;2023-04-23T08:30:51;100577.48;;;17.89;79.14
63281;BME280;49406;51.044;3.766;2023-04-23T08:33:25;100579.35;;;17.91;79.36
63281;BME280;49406;51.044;3.766;2023-04-23T08:36:00;100575.70;;;17.96;79.80
63281;BME280;49406;51.044;3.766;2023-04-23T08:38:35;100578.15;;;18.03;78.59
63281;BME280;49406;51.044;3.766;2023-04-23T08:41:11;100575.49;;;17.97;78.36
63281;BME280;49406;51.044;3.766;2023-04-23T08:43:54;100574.98;;;17.83;79.02
63281;BME280;49406;51.044;3.766;2023-04-23T08:46:34;100572.64;;;17.91;79.75
63281;BME280;49406;51.044;3.766;2023-04-23T08:49:12;100579.02;;;18.17;79.06
63281;BME280;49406;51.044;3.766;2023-04-23T08:51:50;100568.09;;;18.47;78.93
63281;BME280;49406;51.044;3.766;2023-04-23T08:54:27;100575.45;;;18.69;78.21
63281;BME280;49406;51.044;3.766;2023-04-23T08:57:02;100572.70;;;18.60;76.15
63281;BME280;49406;51.044;3.766;2023-04-23T08:59:37;100570.63;;;18.45;76.54
63281;BME280;49406;51.044;3.766;2023-04-23T09:02:13;100566.66;;;18.35;75.77
63281;BME280;49406;51.044;3.766;2023-04-23T09:04:47;100561.90;;;18.09;76.39
63281;BME280;49406;51.044;3.766;2023-04-23T09:07:25;100556.94;;;17.76;77.23
63281;BME280;49406;51.044;3.766;2023-04-23T09:10:00;100557.48;;;17.54;77.59
63281;BME280;49406;51.044;3.766;2023-04-23T09:12:36;100551.72;;;17.43;78.71
63281;BME280;49406;51.044;3.766;2023-04-23T09:15:12;100560.33;;;17.46;78.70
63281;BME280;49406;51.044;3.766;2023-04-23T09:17:47;100552.73;;;17.32;78.45
63281;BME280;49406;51.044;3.766;2023-04-23T09:20:23;100553.25;;;17.24;79.09
63281;BME280;49406;51.044;3.766;2023-04-23T09:22:58;100548.77;;;17.04;79.52
63281;BME280;49406;51.044;3.766;2023-04-23T09:25:33;100544.67;;;16.98;79.67
63281;BME280;49406;51.044;3.766;2023-04-23T09:28:09;100545.77;;;17.05;80.17
63281;BME280;49406;51.044;3.766;2023-04-23T09:30:45;100542.40;;;17.05;81.40
63281;BME280;49406;51.044;3.766;2023-04-23T09:33:22;100539.56;;;17.13;81.63
63281;BME280;49406;51.044;3.766;2023-04-23T09:35:56;100535.73;;;17.19;81.38
63281;BME280;49406;51.044;3.766;2023-04-23T09:38:31;100532.99;;;17.22;81.36
63281;BME280;49406;51.044;3.766;2023-04-23T09:44:13;100528.27;;;17.27;80.70
63281;BME280;49406;51.044;3.766;2023-04-23T09:46:50;100522.89;;;17.30;81.69
63281;BME280;49406;51.044;3.766;2023-04-23T09:49:25;100522.83;;;17.33;80.59
63281;BME280;49406;51.044;3.766;2023-04-23T09:52:05;100516.92;;;17.28;80.78
63281;BME280;49406;51.044;3.766;2023-04-23T09:54:40;100512.12;;;17.30;81.58
63281;BME280;49406;51.044;3.766;2023-04-23T09:57:16;100508.58;;;17.23;81.12
63281;BME280;49406;51.044;3.766;2023-04-23T09:59:50;100510.55;;;17.36;81.52
63281;BME280;49406;51.044;3.766;2023-04-23T10:02:28;100499.77;;;17.57;79.88
63281;BME280;49406;51.044;3.766;2023-04-23T10:05:15;100501.02;;;17.63;79.20
63281;BME280;49406;51.044;3.766;2023-04-23T10:07:49;100499.61;;;17.71;78.92
63281;BME280;49406;51.044;3.766;2023-04-23T10:10:24;100499.38;;;17.66;77.83
63281;BME280;49406;51.044;3.766;2023-04-23T10:12:59;100496.13;;;17.54;78.77
63281;BME280;49406;51.044;3.766;2023-04-23T10:15:35;100489.15;;;17.51;79.34
63281;BME280;49406;51.044;3.766;2023-04-23T10:18:11;100484.26;;;17.62;79.61
63281;BME280;49406;51.044;3.766;2023-04-23T10:20:46;100484.98;;;17.70;78.12
63281;BME280;49406;51.044;3.766;2023-04-23T10:23:22;100477.75;;;17.69;77.75
63281;BME280;49406;51.044;3.766;2023-04-23T10:25:58;100482.99;;;17.50;78.04
63281;BME280;49406;51.044;3.766;2023-04-23T10:28:34;100487.89;;;17.17;81.03
63281;BME280;49406;51.044;3.766;2023-04-23T10:31:09;100484.83;;;16.74;82.32
63281;BME280;49406;51.044;3.766;2023-04-23T10:33:45;100489.83;;;16.31;83.31
63281;BME280;49406;51.044;3.766;2023-04-23T10:36:23;100480.36;;;16.10;85.11
63281;BME280;49406;51.044;3.766;2023-04-23T10:39:00;100480.46;;;15.97;86.85
63281;BME280;49406;51.044;3.766;2023-04-23T10:41:41;100476.91;;;15.80;87.11
63281;BME280;49406;51.044;3.766;2023-04-23T10:44:16;100471.73;;;15.92;88.46
63281;BME280;49406;51.044;3.766;2023-04-23T10:46:54;100474.66;;;16.22;87.78
63281;BME280;49406;51.044;3.766;2023-04-23T10:49:32;100469.52;;;16.39;86.31
63281;BME280;49406;51.044;3.766;2023-04-23T10:52:11;100462.95;;;16.66;84.78
63281;BME280;49406;51.044;3.766;2023-04-23T10:54:55;100451.84;;;16.96;81.02
63281;BME280;49406;51.044;3.766;2023-04-23T10:57:31;100448.73;;;17.29;80.09
63281;BME280;49406;51.044;3.766;2023-04-23T11:00:26;100438.58;;;17.59;79.49
63281;BME280;49406;51.044;3.766;2023-04-23T11:03:02;100439.53;;;17.95;79.62
63281;BME280;49406;51.044;3.766;2023-04-23T11:05:37;100436.61;;;18.28;78.21
63281;BME280;49406;51.044;3.766;2023-04-23T11:08:12;100430.28;;;18.33;75.96
63281;BME280;49406;51.044;3.766;2023-04-23T11:10:59;100430.13;;;18.26;75.95
63281;BME280;49406;51.044;3.766;2023-04-23T11:13:35;100430.61;;;18.04;74.24
63281;BME280;49406;51.044;3.766;2023-04-23T11:16:16;100424.60;;;17.98;75.15
63281;BME280;49406;51.044;3.766;2023-04-23T11:19:02;100429.73;;;17.79;71.98
63281;BME280;49406;51.044;3.766;2023-04-23T11:21:56;100422.30;;;17.53;72.18
63281;BME280;49406;51.044;3.766;2023-04-23T11:24:32;100426.10;;;17.23;73.30
63281;BME280;49406;51.044;3.766;2023-04-23T11:27:10;100427.08;;;16.91;74.21
63281;BME280;49406;51.044;3.766;2023-04-23T11:29:46;100429.23;;;16.51;77.15
63281;BME280;49406;51.044;3.766;2023-04-23T11:32:19;100421.06;;;16.04;80.15
63281;BME280;49406;51.044;3.766;2023-04-23T11:34:55;100420.26;;;15.75;82.74
63281;BME280;49406;51.044;3.766;2023-04-23T11:37:31;100408.58;;;15.48;85.16
63281;BME280;49406;51.044;3.766;2023-04-23T11:40:09;100405.97;;;15.27;86.69
63281;BME280;49406;51.044;3.766;2023-04-23T11:42:46;100406.80;;;15.10;86.94
63281;BME280;49406;51.044;3.766;2023-04-23T11:45:22;100398.41;;;14.96;89.01
63281;BME280;49406;51.044;3.766;2023-04-23T11:47:58;100399.30;;;14.97;90.55
63281;BME280;49406;51.044;3.766;2023-04-23T11:50:33;100394.51;;;14.99;91.50
63281;BME280;49406;51.044;3.766;2023-04-23T11:53:10;100390.23;;;14.91;91.63
63281;BME280;49406;51.044;3.766;2023-04-23T11:55:51;100387.64;;;14.78;92.01
63281;BME280;49406;51.044;3.766;2023-04-23T11:58:26;100387.44;;;14.68;94.19
63281;BME280;49406;51.044;3.766;2023-04-23T12:01:01;100379.61;;;14.63;95.10
63281;BME280;49406;51.044;3.766;2023-04-23T12:03:36;100377.38;;;14.59;96.60
63281;BME280;49406;51.044;3.766;2023-04-23T12:06:10;100373.55;;;14.56;96.80
63281;BME280;49406;51.044;3.766;2023-04-23T12:08:46;100369.16;;;14.56;97.54
63281;BME280;49406;51.044;3.766;2023-04-23T12:11:23;100362.20;;;14.51;97.81
63281;BME280;49406;51.044;3.766;2023-04-23T12:13:59;100363.89;;;14.45;99.04
63281;BME280;49406;51.044;3.766;2023-04-23T12:16:41;100364.41;;;14.44;99.97
63281;BME280;49406;51.044;3.766;2023-04-23T12:19:17;100358.35;;;14.36;100.00
63281;BME280;49406;51.044;3.766;2023-04-23T12:21:53;100357.40;;;14.29;100.00
63281;BME280;49406;51.044;3.766;2023-04-23T12:24:29;100359.52;;;14.30;100.00
63281;BME280;49406;51.044;3.766;2023-04-23T12:27:04;100352.71;;;14.26;100.00
63281;BME280;49406;51.044;3.766;2023-04-23T12:29:38;100348.14;;;14.13;100.00
63281;BME280;49406;51.044;3.766;2023-04-23T12:32:13;100340.75;;;14.02;100.00
63281;BME280;49406;51.044;3.766;2023-04-23T12:34:55;100337.80;;;13.99;100.00
63281;BME280;49406;51.044;3.766;2023-04-23T12:37:33;100335.90;;;13.96;100.00
63281;BME280;49406;51.044;3.766;2023-04-23T12:40:10;100330.52;;;13.90;100.00
63281;BME280;49406;51.044;3.766;2023-04-23T12:42:44;100325.11;;;13.88;100.00
63281;BME280;49406;51.044;3.766;2023-04-23T12:45:19;100312.36;;;13.83;100.00
63281;BME280;49406;51.044;3.766;2023-04-23T12:47:54;100314.08;;;13.85;100.00
63281;BME280;49406;51.044;3.766;2023-04-23T12:50:28;100303.36;;;13.85;100.00
63281;BME280;49406;51.044;3.766;2023-04-23T12:53:02;100299.48;;;13.87;100.00
63281;BME280;49406;51.044;3.766;2023-04-23T12:55:37;100296.37;;;13.83;100.00
63281;BME280;49406;51.044;3.766;2023-04-23T12:58:12;100291.58;;;13.73;100.00
63281;BME280;49406;51.044;3.766;2023-04-23T13:00:46;100284.64;;;13.67;100.00
63281;BME280;49406;51.044;3.766;2023-04-23T13:03:21;100279.84;;;13.71;100.00
63281;BME280;49406;51.044;3.766;2023-04-23T13:05:56;100281.45;;;13.70;100.00
63281;BME280;49406;51.044;3.766;2023-04-23T13:08:30;100280.50;;;13.62;100.00
63281;BME280;49406;51.044;3.766;2023-04-23T13:11:05;100276.84;;;13.59;100.00
63281;BME280;49406;51.044;3.766;2023-04-23T13:13:39;100271.44;;;13.56;100.00
63281;BME280;49406;51.044;3.766;2023-04-23T13:16:14;100258.94;;;13.57;100.00
63281;BME280;49406;51.044;3.766;2023-04-23T13:18:48;100247.05;;;13.54;100.00
63281;BME280;49406;51.044;3.766;2023-04-23T13:21:24;100240.64;;;13.49;100.00
63281;BME280;49406;51.044;3.766;2023-04-23T13:23:59;100236.47;;;13.45;100.00
63281;BME280;49406;51.044;3.766;2023-04-23T13:26:33;100226.52;;;13.40;100.00
63281;BME280;49406;51.044;3.766;2023-04-23T13:29:09;100220.91;;;13.39;100.00
63281;BME280;49406;51.044;3.766;2023-04-23T13:31:43;100217.45;;;13.35;100.00
63281;BME280;49406;51.044;3.766;2023-04-23T13:34:18;100212.20;;;13.35;100.00